Time;durP1;ratioP1;P1;durP2;ratioP2;P2;SDS_P1;SDS_P2;PMS_P1;PMS_P2;Temp;Humidity;BMP_temperature;BMP_pressure;BME280_temperature;BME280_humidity;BME280_pressure;Samples;Min_cycle;Max_cycle;Signal;HPM_P1;HPM_P2
2024/02/17 00:00:45;;;;;;;13.87;6.77;;;13.20;88.00;;;;;;5031997;28;20556;-72
2024/02/17 00:03:14;;;;;;;9.60;6.43;;;13.10;87.70;;;;;;5025698;28;20237;-73
2024/02/17 00:05:40;;;;;;;9.83;6.07;;;13.00;87.80;;;;;;5035253;28;20424;-73
2024/02/17 00:08:06;;;;;;;9.87;5.30;;;13.10;88.00;;;;;;5033382;28;20518;-72
2024/02/17 00:10:32;;;;;;;8.57;5.37;;;13.10;87.80;;;;;;5026290;28;20216;-72
2024/02/17 00:12:57;;;;;;;12.47;6.47;;;13.00;87.80;;;;;;5028114;28;20178;-72
2024/02/17 00:15:23;;;;;;;10.33;6.33;;;12.90;87.80;;;;;;5032858;28;20181;-73
2024/02/17 00:17:48;;;;;;;7.53;5.50;;;12.90;88.10;;;;;;5033235;28;20563;-74
2024/02/17 00:20:17;;;;;;;8.80;5.60;;;12.80;88.10;;;;;;5021542;28;20192;-75
2024/02/17 00:22:43;;;;;;;9.50;5.80;;;12.90;88.30;;;;;;5029205;28;20218;-74
2024/02/17 00:25:09;;;;;;;9.83;5.93;;;12.80;88.30;;;;;;5032554;28;20523;-75
2024/02/17 00:27:35;;;;;;;8.73;5.50;;;12.90;88.40;;;;;;5024390;28;20452;-74
2024/02/17 00:30:01;;;;;;;8.77;5.77;;;12.90;88.40;;;;;;5034130;28;20412;-72
2024/02/17 00:32:27;;;;;;;8.57;5.70;;;13.00;88.40;;;;;;5029930;28;20220;-73
2024/02/17 00:34:52;;;;;;;12.83;6.40;;;13.00;88.30;;;;;;5027361;28;20456;-74
2024/02/17 00:37:18;;;;;;;14.30;6.30;;;13.00;88.30;;;;;;5030759;28;20239;-71
2024/02/17 00:39:44;;;;;;;10.93;6.97;;;12.90;88.40;;;;;;5032522;28;20192;-72
2024/02/17 00:42:09;;;;;;;18.70;8.17;;;13.00;88.70;;;;;;5026633;28;20217;-73
2024/02/17 00:44:35;;;;;;;19.63;8.87;;;12.90;88.70;;;;;;5022947;28;20276;-74
2024/02/17 00:47:00;;;;;;;14.47;7.90;;;12.90;88.70;;;;;;5030145;28;20646;-74
2024/02/17 00:49:26;;;;;;;11.23;8.10;;;12.90;88.60;;;;;;5033345;28;20178;-73
2024/02/17 00:51:52;;;;;;;12.17;6.47;;;12.80;88.70;;;;;;5028668;28;20243;-73
2024/02/17 00:54:18;;;;;;;16.43;7.87;;;12.90;88.90;;;;;;5026263;28;20190;-73
2024/02/17 00:56:43;;;;;;;13.20;7.90;;;12.90;88.90;;;;;;5030802;28;20200;-72
2024/02/17 00:59:09;;;;;;;13.40;7.50;;;12.90;89.00;;;;;;5027897;28;20280;-75
2024/02/17 01:01:34;;;;;;;11.20;7.17;;;12.90;88.90;;;;;;5023585;28;20275;-73
2024/02/17 01:04:00;;;;;;;11.10;7.73;;;12.90;88.90;;;;;;5023768;28;20293;-71
2024/02/17 01:06:25;;;;;;;9.40;5.90;;;12.90;89.00;;;;;;5026551;28;20173;-73
2024/02/17 01:08:51;;;;;;;11.33;6.83;;;13.00;89.00;;;;;;5032087;28;20177;-72
2024/02/17 01:11:18;;;;;;;11.70;6.77;;;13.00;88.60;;;;;;5020789;28;20198;-73
2024/02/17 01:13:45;;;;;;;13.30;8.03;;;12.90;88.40;;;;;;5027888;28;20181;-73
2024/02/17 01:16:10;;;;;;;12.80;7.73;;;12.90;88.60;;;;;;5031198;28;20424;-73
2024/02/17 01:18:36;;;;;;;10.90;7.00;;;12.90;88.70;;;;;;5032229;28;20428;-72
2024/02/17 01:21:02;;;;;;;14.60;8.07;;;12.90;88.90;;;;;;5027755;28;20202;-73
2024/02/17 01:23:27;;;;;;;13.13;7.40;;;12.80;88.90;;;;;;5027278;28;20209;-73
2024/02/17 01:25:55;;;;;;;11.67;7.57;;;12.80;88.90;;;;;;5030471;28;20427;-73
2024/02/17 01:28:20;;;;;;;10.13;5.83;;;12.80;88.90;;;;;;5033566;28;20213;-73
2024/02/17 01:30:46;;;;;;;9.80;6.27;;;12.80;88.90;;;;;;5029382;28;20500;-73
2024/02/17 01:33:12;;;;;;;11.93;6.60;;;12.90;89.00;;;;;;5029705;28;20657;-73
2024/02/17 01:35:38;;;;;;;11.20;6.70;;;12.90;88.90;;;;;;5033442;28;20185;-73
2024/02/17 01:38:07;;;;;;;12.10;7.67;;;12.90;88.90;;;;;;5032116;28;20786;-73
2024/02/17 01:40:33;;;;;;;9.50;6.50;;;12.90;88.90;;;;;;5026342;28;20201;-72
2024/02/17 01:42:59;;;;;;;10.53;6.10;;;12.90;88.70;;;;;;5025230;28;20507;-72
2024/02/17 01:45:25;;;;;;;10.50;6.43;;;12.90;88.60;;;;;;5030240;28;20455;-73
2024/02/17 01:47:51;;;;;;;10.97;5.70;;;12.90;88.70;;;;;;5031077;28;20236;-72
2024/02/17 01:50:17;;;;;;;8.97;6.30;;;12.90;88.60;;;;;;5024766;28;20630;-71
2024/02/17 01:52:44;;;;;;;14.80;6.27;;;12.90;88.70;;;;;;5028459;28;20420;-72
2024/02/17 01:55:11;;;;;;;12.10;6.53;;;12.90;88.60;;;;;;5029218;28;20419;-73
2024/02/17 01:57:37;;;;;;;10.60;5.90;;;12.80;88.40;;;;;;5030078;28;20408;-74
2024/02/17 02:00:04;;;;;;;6.10;4.33;;;12.70;88.60;;;;;;5030118;28;20420;-73
2024/02/17 02:02:31;;;;;;;7.87;4.70;;;12.70;88.70;;;;;;5021451;28;20567;-73
2024/02/17 02:04:56;;;;;;;8.83;4.50;;;12.70;88.90;;;;;;5023268;28;20927;-72
2024/02/17 02:07:22;;;;;;;11.60;5.17;;;12.60;89.20;;;;;;5024555;28;20456;-74
2024/02/17 02:09:47;;;;;;;10.20;4.30;;;12.60;89.30;;;;;;5028246;28;20688;-72
2024/02/17 02:12:13;;;;;;;7.70;4.30;;;12.60;89.30;;;;;;5021950;28;20216;-71
2024/02/17 02:14:39;;;;;;;8.20;5.30;;;12.50;89.50;;;;;;5025105;28;20235;-72
2024/02/17 02:17:04;;;;;;;7.70;4.40;;;12.50;89.70;;;;;;5028164;28;20224;-71
2024/02/17 02:19:32;;;;;;;9.77;4.57;;;12.50;89.90;;;;;;5028691;28;20242;-73
2024/02/17 02:21:58;;;;;;;11.30;5.40;;;12.40;89.90;;;;;;5015059;28;20201;-73
2024/02/17 02:24:23;;;;;;;7.03;4.27;;;12.30;90.00;;;;;;5027147;28;20442;-71
2024/02/17 02:26:49;;;;;;;3.80;2.47;;;12.30;90.10;;;;;;5032142;28;20711;-72
2024/02/17 02:29:15;;;;;;;5.63;2.27;;;12.10;90.10;;;;;;5026634;28;20255;-72
2024/02/17 02:31:40;;;;;;;4.67;2.93;;;12.00;89.70;;;;;;5025389;28;21023;-72
2024/02/17 02:34:06;;;;;;;7.13;3.53;;;11.90;88.90;;;;;;5026898;28;20200;-72
2024/02/17 02:36:31;;;;;;;5.77;3.50;;;11.80;88.90;;;;;;5033118;28;20215;-73
2024/02/17 02:38:57;;;;;;;7.27;3.70;;;11.80;88.60;;;;;;5030611;28;20208;-72
2024/02/17 02:41:23;;;;;;;9.53;4.93;;;11.70;88.10;;;;;;5029534;28;20217;-72
2024/02/17 02:43:49;;;;;;;9.80;5.10;;;11.70;88.10;;;;;;5030299;28;20589;-72
2024/02/17 02:46:15;;;;;;;9.93;5.30;;;11.80;88.10;;;;;;5030470;28;20281;-72
2024/02/17 02:48:40;;;;;;;11.80;5.97;;;11.80;88.10;;;;;;5034237;28;20854;-72
2024/02/17 02:51:06;;;;;;;13.10;6.80;;;11.80;88.00;;;;;;5028472;28;20208;-72
2024/02/17 02:53:31;;;;;;;11.23;6.50;;;11.90;88.00;;;;;;5030671;28;20851;-72
2024/02/17 02:55:57;;;;;;;12.73;6.87;;;11.80;87.80;;;;;;5033381;28;20708;-71
2024/02/17 02:58:23;;;;;;;17.20;7.53;;;11.70;88.00;;;;;;5033601;28;20216;-70
2024/02/17 03:00:49;;;;;;;13.63;6.77;;;11.70;88.40;;;;;;5030629;28;20661;-72
2024/02/17 03:03:15;;;;;;;17.80;8.30;;;11.70;88.40;;;;;;5021427;28;20216;-72
2024/02/17 03:05:40;;;;;;;17.03;8.00;;;11.80;88.40;;;;;;5024970;28;20451;-73
2024/02/17 03:08:06;;;;;;;18.43;8.53;;;11.60;88.40;;;;;;5032322;28;20463;-70
2024/02/17 03:10:32;;;;;;;18.63;9.23;;;11.50;88.60;;;;;;5030030;28;20260;-72
2024/02/17 03:12:58;;;;;;;18.07;9.33;;;11.40;88.70;;;;;;5032419;28;20184;-71
2024/02/17 03:15:24;;;;;;;20.53;9.20;;;11.40;89.00;;;;;;5032321;28;20185;-72
2024/02/17 03:17:53;;;;;;;19.63;9.57;;;11.50;89.20;;;;;;5030949;28;20433;-71
2024/02/17 03:20:18;;;;;;;24.37;10.30;;;11.40;89.20;;;;;;5029357;28;20200;-72
2024/02/17 03:22:44;;;;;;;23.33;11.60;;;11.50;89.30;;;;;;5025749;28;20499;-71
2024/02/17 03:25:10;;;;;;;21.30;10.20;;;11.50;89.50;;;;;;5029244;28;20235;-71
2024/02/17 03:27:36;;;;;;;25.50;10.83;;;11.40;89.50;;;;;;5030658;28;20185;-73
2024/02/17 03:30:05;;;;;;;22.03;9.97;;;11.40;89.30;;;;;;5034006;28;20432;-71
2024/02/17 03:32:34;;;;;;;25.57;12.63;;;11.40;89.30;;;;;;5021666;28;20196;-71
2024/02/17 03:35:00;;;;;;;30.37;13.47;;;11.30;89.30;;;;;;5029022;28;20956;-71
2024/02/17 03:37:26;;;;;;;25.13;10.97;;;11.40;89.30;;;;;;5027489;28;20420;-72
2024/02/17 03:39:53;;;;;;;25.70;12.80;;;11.40;89.30;;;;;;5029453;28;20484;-72
2024/02/17 03:42:19;;;;;;;29.40;13.77;;;11.30;89.30;;;;;;5023615;28;20224;-71
2024/02/17 03:44:44;;;;;;;25.80;11.80;;;11.40;89.30;;;;;;5030493;28;20439;-72
2024/02/17 03:47:11;;;;;;;22.23;11.03;;;11.40;89.50;;;;;;5031056;28;20181;-72
2024/02/17 03:49:37;;;;;;;29.07;13.20;;;11.50;89.30;;;;;;5033992;28;20181;-72
2024/02/17 03:52:03;;;;;;;26.10;13.30;;;11.50;89.20;;;;;;5022538;28;20530;-71
2024/02/17 03:54:29;;;;;;;32.53;14.90;;;11.50;89.00;;;;;;5030540;28;20427;-71
2024/02/17 03:56:54;;;;;;;23.10;10.90;;;11.50;88.90;;;;;;5031926;28;20408;-71
2024/02/17 03:59:20;;;;;;;23.70;12.23;;;11.50;88.90;;;;;;5032594;28;20764;-72
2024/02/17 04:01:45;;;;;;;28.70;12.80;;;11.50;88.40;;;;;;5029986;28;20209;-72
2024/02/17 04:04:11;;;;;;;27.40;13.33;;;11.40;88.10;;;;;;5028997;28;20296;-71
2024/02/17 04:06:37;;;;;;;23.17;11.83;;;11.40;87.80;;;;;;5030680;28;20177;-70
2024/02/17 04:09:02;;;;;;;28.97;13.97;;;11.40;87.70;;;;;;5029655;28;20181;-72
2024/02/17 04:11:28;;;;;;;26.10;12.83;;;11.50;87.60;;;;;;5025042;28;20881;-71
2024/02/17 04:13:56;;;;;;;26.50;12.33;;;11.50;87.60;;;;;;5030328;28;20193;-71
2024/02/17 04:16:22;;;;;;;36.97;13.97;;;11.50;87.70;;;;;;5031826;28;20592;-71
2024/02/17 04:18:48;;;;;;;27.10;12.40;;;11.50;87.60;;;;;;5024711;28;20510;-73
2024/02/17 04:21:14;;;;;;;30.33;12.33;;;11.50;87.60;;;;;;5027178;28;20484;-72
2024/02/17 04:23:43;;;;;;;20.13;10.70;;;11.60;87.40;;;;;;5026237;28;20519;-73
2024/02/17 04:26:09;;;;;;;24.33;11.23;;;11.60;86.90;;;;;;5031938;28;20431;-71
2024/02/17 04:28:36;;;;;;;18.47;9.93;;;11.60;86.80;;;;;;5030517;28;21248;-74
2024/02/17 04:31:03;;;;;;;21.20;10.03;;;11.60;85.90;;;;;;5028499;28;20617;-72
2024/02/17 04:33:28;;;;;;;24.43;11.13;;;11.60;85.70;;;;;;5022934;28;21189;-71
2024/02/17 04:35:54;;;;;;;24.63;10.87;;;11.60;85.60;;;;;;5028288;28;20516;-71
2024/02/17 04:38:20;;;;;;;21.57;9.70;;;11.50;85.90;;;;;;5031719;28;20205;-72
2024/02/17 04:40:45;;;;;;;21.53;10.33;;;11.50;86.00;;;;;;5025266;28;20204;-73
2024/02/17 04:43:12;;;;;;;20.23;10.40;;;11.50;86.20;;;;;;5030740;28;20541;-71
2024/02/17 04:45:37;;;;;;;17.37;8.93;;;11.50;86.20;;;;;;5029329;28;20184;-70
2024/02/17 04:48:03;;;;;;;22.70;10.10;;;11.60;86.00;;;;;;5026683;28;20415;-71
2024/02/17 04:50:29;;;;;;;17.80;8.83;;;11.50;85.60;;;;;;5028016;28;20224;-71
2024/02/17 04:52:54;;;;;;;19.40;10.10;;;11.50;85.50;;;;;;5024116;28;20188;-71
2024/02/17 04:55:20;;;;;;;17.00;9.00;;;11.50;85.50;;;;;;5029087;28;20182;-71
2024/02/17 04:57:45;;;;;;;18.10;8.70;;;11.50;85.30;;;;;;5030076;28;20188;-72
2024/02/17 05:00:11;;;;;;;18.10;9.17;;;11.40;85.00;;;;;;5030537;28;20674;-71
2024/02/17 05:02:38;;;;;;;18.17;8.27;;;11.40;85.20;;;;;;5021759;28;21040;-71
2024/02/17 05:05:04;;;;;;;24.57;11.57;;;11.40;85.20;;;;;;5029738;28;20420;-72
2024/02/17 05:07:29;;;;;;;23.47;11.13;;;11.30;85.20;;;;;;5029962;28;20440;-71
2024/02/17 05:09:55;;;;;;;22.90;10.13;;;11.30;85.50;;;;;;5030706;28;20431;-71
2024/02/17 05:12:21;;;;;;;23.40;11.67;;;11.30;85.60;;;;;;5020533;28;20212;-72
2024/02/17 05:14:46;;;;;;;30.00;12.70;;;11.30;85.70;;;;;;5029000;28;20185;-72
2024/02/17 05:17:12;;;;;;;27.47;12.30;;;11.40;86.00;;;;;;5026456;28;20264;-72
2024/02/17 05:19:37;;;;;;;22.23;11.50;;;11.40;85.90;;;;;;5030499;28;20185;-74
2024/02/17 05:22:04;;;;;;;25.27;12.17;;;11.40;85.90;;;;;;5023439;28;20623;-71
2024/02/17 05:24:31;;;;;;;34.03;13.80;;;11.40;85.90;;;;;;5030480;28;20200;-72
2024/02/17 05:26:56;;;;;;;29.40;14.00;;;11.40;85.90;;;;;;5027336;28;20431;-72
2024/02/17 05:29:22;;;;;;;25.90;11.97;;;11.30;86.20;;;;;;5030240;28;20420;-73
2024/02/17 05:31:48;;;;;;;29.73;12.77;;;11.20;86.50;;;;;;5020483;28;20208;-72
2024/02/17 05:34:14;;;;;;;31.23;12.77;;;11.20;86.80;;;;;;5026611;28;20189;-72
2024/02/17 05:36:39;;;;;;;32.60;13.40;;;11.20;86.90;;;;;;5026769;28;20184;-72
2024/02/17 05:39:05;;;;;;;29.30;14.07;;;11.20;87.00;;;;;;5029960;28;20459;-71
2024/02/17 05:41:30;;;;;;;28.50;12.70;;;11.20;87.10;;;;;;5023839;28;20693;-72
2024/02/17 05:43:56;;;;;;;30.70;14.27;;;11.20;87.10;;;;;;5026733;28;20217;-72
2024/02/17 05:46:23;;;;;;;37.33;15.50;;;11.20;87.10;;;;;;5030110;28;20181;-71
2024/02/17 05:48:49;;;;;;;31.40;14.17;;;11.10;87.10;;;;;;5029473;28;20181;-72
2024/02/17 05:51:15;;;;;;;30.03;12.87;;;11.10;87.40;;;;;;5027295;28;20831;-75
2024/02/17 05:53:40;;;;;;;28.50;11.70;;;11.10;87.60;;;;;;5020516;28;20634;-72
2024/02/17 05:56:07;;;;;;;31.47;14.70;;;11.20;87.60;;;;;;5027206;28;20185;-73
2024/02/17 05:58:32;;;;;;;31.50;15.30;;;11.20;87.60;;;;;;5029808;28;20174;-73
2024/02/17 06:01:00;;;;;;;35.50;14.60;;;11.10;87.40;;;;;;5024436;28;21098;-71
2024/02/17 06:03:26;;;;;;;29.47;13.63;;;11.10;87.60;;;;;;5017917;28;20241;-73
2024/02/17 06:05:52;;;;;;;30.13;13.87;;;11.10;87.70;;;;;;5029700;28;20423;-72
2024/02/17 06:08:19;;;;;;;36.73;14.63;;;11.10;87.70;;;;;;5029131;28;20412;-72
2024/02/17 06:10:44;;;;;;;36.97;14.40;;;11.10;87.70;;;;;;5025883;28;20572;-71
2024/02/17 06:13:10;;;;;;;35.97;15.90;;;11.00;87.70;;;;;;5018105;28;20535;-72
2024/02/17 06:15:38;;;;;;;32.33;15.30;;;11.00;87.80;;;;;;5029434;28;20729;-73
2024/02/17 06:23:31;;;;;;;37.97;16.07;;;10.80;88.10;;;;;;5025548;28;20478;-72
2024/02/17 06:25:57;;;;;;;42.07;16.97;;;10.80;88.40;;;;;;5029824;28;20499;-71
2024/02/17 06:28:23;;;;;;;36.90;16.10;;;10.70;88.40;;;;;;5029058;28;20256;-72
2024/02/17 06:30:48;;;;;;;33.10;15.10;;;10.70;88.60;;;;;;5025657;28;20205;-72
2024/02/17 06:33:14;;;;;;;37.80;15.77;;;10.70;88.60;;;;;;5019291;28;20201;-71
2024/02/17 06:35:40;;;;;;;37.33;16.10;;;10.70;88.70;;;;;;5025628;28;20250;-72
2024/02/17 06:38:05;;;;;;;39.80;16.03;;;10.70;88.70;;;;;;5027808;28;20205;-71
2024/02/17 06:40:31;;;;;;;42.47;17.70;;;10.70;88.70;;;;;;5024101;28;20860;-73
2024/02/17 06:42:57;;;;;;;41.30;16.40;;;10.60;88.70;;;;;;5025137;28;20289;-72
2024/02/17 06:45:22;;;;;;;34.50;14.90;;;10.60;88.70;;;;;;5026573;28;20180;-71
2024/02/17 06:47:48;;;;;;;35.67;16.33;;;10.60;88.90;;;;;;5026416;28;20192;-71
2024/02/17 06:50:14;;;;;;;38.93;15.50;;;10.70;88.90;;;;;;5023892;28;20280;-73
2024/02/17 06:52:40;;;;;;;33.63;14.93;;;10.60;88.70;;;;;;5020349;28;20209;-72
2024/02/17 06:55:06;;;;;;;31.27;14.53;;;10.60;88.70;;;;;;5018837;28;20436;-72
2024/02/17 06:57:31;;;;;;;36.70;16.13;;;10.60;88.70;;;;;;5021352;28;20785;-72
2024/02/17 06:59:57;;;;;;;38.93;15.80;;;10.40;88.70;;;;;;5026887;28;20416;-72
2024/02/17 07:02:23;;;;;;;38.97;15.17;;;10.40;88.90;;;;;;5015925;28;20700;-72
2024/02/17 07:04:52;;;;;;;38.90;15.77;;;10.40;88.90;;;;;;5022737;28;20192;-73
2024/02/17 07:07:18;;;;;;;38.03;16.50;;;10.40;88.90;;;;;;5023223;28;20339;-71
2024/02/17 07:09:44;;;;;;;37.50;16.43;;;10.40;89.00;;;;;;5029482;28;20795;-71
2024/02/17 07:12:10;;;;;;;31.60;13.83;;;10.30;89.20;;;;;;5018121;28;20988;-72
2024/02/17 07:14:38;;;;;;;37.13;15.67;;;10.30;89.20;;;;;;5028080;28;20948;-73
2024/02/17 07:17:04;;;;;;;35.83;16.27;;;10.40;89.30;;;;;;5028449;28;20443;-71
2024/02/17 07:19:30;;;;;;;40.70;17.17;;;10.30;89.20;;;;;;5030132;28;20435;-71
2024/02/17 07:21:56;;;;;;;35.73;16.80;;;10.30;89.20;;;;;;5023987;28;20471;-71
2024/02/17 07:24:21;;;;;;;34.40;15.30;;;10.30;89.20;;;;;;5030648;28;20478;-71
2024/02/17 07:26:48;;;;;;;37.47;15.80;;;10.30;89.20;;;;;;5031637;28;20180;-71
2024/02/17 07:29:13;;;;;;;38.50;16.33;;;10.30;89.00;;;;;;5030114;28;20654;-71
2024/02/17 07:31:40;;;;;;;32.90;14.33;;;10.30;89.00;;;;;;5025750;28;20482;-74
2024/02/17 07:34:07;;;;;;;39.90;17.27;;;10.40;88.70;;;;;;5029937;28;20197;-73
2024/02/17 07:36:32;;;;;;;31.77;15.50;;;10.50;88.60;;;;;;5031773;28;20444;-72
2024/02/17 07:38:58;;;;;;;32.20;15.00;;;10.50;88.40;;;;;;5032675;28;20509;-72
2024/02/17 07:41:24;;;;;;;40.30;16.47;;;10.40;88.10;;;;;;5027346;28;20213;-71
2024/02/17 07:43:52;;;;;;;34.83;14.73;;;10.50;88.00;;;;;;5032056;28;20237;-72
2024/02/17 07:46:18;;;;;;;34.37;14.50;;;10.50;88.10;;;;;;5033038;28;20177;-72
2024/02/17 07:48:45;;;;;;;26.17;13.50;;;10.60;88.00;;;;;;5032443;28;20416;-72
2024/02/17 07:51:14;;;;;;;31.73;15.00;;;10.50;87.70;;;;;;5025741;28;20460;-71
2024/02/17 07:53:40;;;;;;;33.57;14.27;;;10.60;87.40;;;;;;5026778;28;20479;-71
2024/02/17 07:56:06;;;;;;;38.67;15.70;;;10.60;87.00;;;;;;5032649;28;20438;-72
2024/02/17 07:58:32;;;;;;;31.30;13.40;;;10.60;86.80;;;;;;5032101;28;20776;-71
2024/02/17 08:00:59;;;;;;;33.53;14.37;;;10.60;86.50;;;;;;5029932;28;20550;-71
2024/02/17 08:03:24;;;;;;;29.70;13.40;;;10.70;86.30;;;;;;5025126;28;20677;-72
2024/02/17 08:05:50;;;;;;;30.27;14.33;;;10.80;86.30;;;;;;5032929;28;20925;-72
2024/02/17 08:08:16;;;;;;;28.33;13.37;;;11.00;86.00;;;;;;5031600;28;20565;-73
2024/02/17 08:10:41;;;;;;;32.87;15.23;;;11.00;85.70;;;;;;5029965;28;20769;-73
2024/02/17 08:13:07;;;;;;;27.20;13.03;;;11.00;85.60;;;;;;5031980;28;20209;-71
2024/02/17 08:15:33;;;;;;;29.27;12.77;;;11.00;85.60;;;;;;5031284;28;20196;-71
2024/02/17 08:17:59;;;;;;;28.07;12.90;;;11.00;85.20;;;;;;5032377;28;20522;-72
2024/02/17 08:20:24;;;;;;;30.50;13.90;;;11.10;85.20;;;;;;5027395;28;20227;-72
2024/02/17 08:22:50;;;;;;;33.97;14.60;;;11.10;84.70;;;;;;5022259;28;20658;-72
2024/02/17 08:25:16;;;;;;;31.67;13.83;;;11.20;84.70;;;;;;5028516;28;20185;-73
2024/02/17 08:27:43;;;;;;;32.40;14.47;;;11.10;84.30;;;;;;5027863;28;20177;-74
2024/02/17 08:30:09;;;;;;;27.30;12.17;;;11.20;84.70;;;;;;5030127;28;20615;-72
2024/02/17 08:32:35;;;;;;;31.10;13.30;;;11.10;84.30;;;;;;5022677;28;20462;-72
2024/02/17 08:35:01;;;;;;;32.20;13.33;;;11.00;84.10;;;;;;5029717;28;20432;-72
2024/02/17 08:37:27;;;;;;;34.30;14.57;;;11.00;84.40;;;;;;5032920;28;20515;-72
2024/02/17 08:39:53;;;;;;;29.43;13.90;;;11.00;84.70;;;;;;5034486;28;20192;-72
2024/02/17 08:42:18;;;;;;;33.80;14.97;;;11.10;84.70;;;;;;5026343;28;20201;-73
2024/02/17 08:44:44;;;;;;;33.60;15.40;;;11.20;84.30;;;;;;5046307;28;20189;-73
2024/02/17 08:47:10;;;;;;;40.27;16.57;;;11.10;83.80;;;;;;5034202;28;20181;-74
2024/02/17 08:49:36;;;;;;;34.20;16.53;;;11.10;84.10;;;;;;5035014;28;20216;-72
2024/02/17 08:52:02;;;;;;;38.30;16.33;;;10.80;84.30;;;;;;5030001;28;20974;-73
2024/02/17 08:54:27;;;;;;;34.43;14.50;;;10.90;84.60;;;;;;5027608;28;20201;-72
2024/02/17 08:56:54;;;;;;;34.17;14.63;;;11.00;84.90;;;;;;5031944;28;20178;-73
2024/02/17 08:59:19;;;;;;;29.00;14.40;;;11.00;84.60;;;;;;5032449;28;20184;-73
2024/02/17 09:01:45;;;;;;;27.30;12.73;;;11.10;84.30;;;;;;5025738;28;20471;-74
2024/02/17 09:04:11;;;;;;;29.20;14.53;;;11.30;84.00;;;;;;5024367;28;20471;-73
2024/02/17 09:06:36;;;;;;;30.00;15.00;;;11.40;83.40;;;;;;5029995;28;20561;-71
2024/02/17 09:09:05;;;;;;;23.20;12.73;;;11.30;82.80;;;;;;5029380;28;20547;-72
2024/02/17 09:11:31;;;;;;;30.70;14.90;;;11.40;82.80;;;;;;5026499;28;20276;-72
2024/02/17 09:13:56;;;;;;;33.70;15.43;;;11.40;82.50;;;;;;5027446;28;20570;-72
2024/02/17 09:16:22;;;;;;;32.23;14.23;;;11.30;82.80;;;;;;5031981;28;20546;-72
2024/02/17 09:18:47;;;;;;;26.83;12.93;;;11.50;83.00;;;;;;5024929;28;20198;-72
2024/02/17 09:21:13;;;;;;;28.73;13.37;;;11.60;82.20;;;;;;5022529;28;20216;-72
2024/02/17 09:23:39;;;;;;;26.83;12.27;;;11.50;81.90;;;;;;5020960;28;20216;-72
2024/02/17 09:26:05;;;;;;;26.13;13.97;;;11.60;81.80;;;;;;5028083;28;20271;-72
2024/02/17 09:28:30;;;;;;;35.60;13.57;;;11.80;82.10;;;;;;5030674;28;20181;-73
2024/02/17 09:30:56;;;;;;;28.70;13.07;;;11.80;82.10;;;;;;5030872;28;20789;-71
2024/02/17 09:33:28;;;;;;;26.30;12.80;;;11.90;81.70;;;;;;5039699;28;20589;-73
2024/02/17 09:35:54;;;;;;;24.43;12.50;;;11.80;80.60;;;;;;5038855;28;20440;-72
2024/02/17 09:38:20;;;;;;;27.20;13.30;;;11.70;80.50;;;;;;5025203;28;20424;-72
2024/02/17 09:40:46;;;;;;;26.30;12.07;;;11.80;80.60;;;;;;5027374;28;20462;-71
2024/02/17 09:43:12;;;;;;;19.43;10.90;;;11.90;80.50;;;;;;5027452;28;20748;-72
2024/02/17 09:45:37;;;;;;;25.30;13.03;;;12.10;79.90;;;;;;5025373;28;20174;-73
2024/02/17 09:48:05;;;;;;;23.17;13.13;;;11.90;79.20;;;;;;5029825;28;20420;-72
2024/02/17 09:50:31;;;;;;;25.13;13.23;;;12.00;79.50;;;;;;5027403;28;20579;-71
2024/02/17 09:53:01;;;;;;;24.43;12.00;;;12.00;79.50;;;;;;5018278;28;20473;-72
2024/02/17 09:55:27;;;;;;;24.93;12.30;;;12.10;79.20;;;;;;5028452;28;20412;-72
2024/02/17 09:57:53;;;;;;;24.30;11.43;;;12.20;78.60;;;;;;5029398;28;20414;-72
2024/02/17 10:00:19;;;;;;;19.53;10.60;;;12.30;78.60;;;;;;5025502;28;20408;-72
2024/02/17 10:02:47;;;;;;;21.53;10.40;;;12.30;78.70;;;;;;5020773;28;20645;-73
2024/02/17 10:05:15;;;;;;;26.00;11.63;;;12.40;77.80;;;;;;5025482;28;20511;-72
2024/02/17 10:07:53;;;;;;;21.90;11.37;;;12.10;78.00;;;;;;5026835;28;20436;-72
2024/02/17 10:10:20;;;;;;;20.50;10.37;;;11.90;79.20;;;;;;5023800;28;20420;-73
2024/02/17 10:12:53;;;;;;;21.27;11.50;;;11.70;79.00;;;;;;5023871;28;20800;-73
2024/02/17 10:15:21;;;;;;;21.10;11.37;;;11.70;79.30;;;;;;5030440;28;20919;-71
2024/02/17 10:17:48;;;;;;;17.80;10.63;;;11.70;79.00;;;;;;5027145;28;20498;-72
2024/02/17 10:20:14;;;;;;;17.20;9.23;;;11.60;79.30;;;;;;5023493;28;20428;-72
2024/02/17 10:22:43;;;;;;;23.73;11.10;;;11.80;79.20;;;;;;5025519;28;20467;-74
2024/02/17 10:25:10;;;;;;;18.27;10.13;;;11.70;78.60;;;;;;5028597;28;20181;-73
2024/02/17 10:27:37;;;;;;;28.67;10.40;;;11.60;78.60;;;;;;5029467;28;20443;-72
2024/02/17 10:30:09;;;;;;;24.40;12.10;;;11.80;78.90;;;;;;5030263;28;20404;-72
2024/02/17 10:32:35;;;;;;;23.63;12.40;;;11.90;77.70;;;;;;5025273;28;20466;-73
2024/02/17 10:35:03;;;;;;;17.47;10.17;;;11.80;78.40;;;;;;5032926;28;20428;-73
2024/02/17 10:37:33;;;;;;;23.27;10.93;;;11.80;79.30;;;;;;5024800;28;20239;-72
2024/02/17 10:40:00;;;;;;;19.40;9.43;;;11.90;78.40;;;;;;5030136;28;20416;-74
2024/02/17 10:42:26;;;;;;;18.67;9.43;;;12.00;78.70;;;;;;5022675;28;20818;-72
2024/02/17 10:44:54;;;;;;;15.10;9.07;;;12.20;77.40;;;;;;5031221;28;20419;-73
2024/02/17 10:47:26;;;;;;;17.27;8.57;;;12.40;76.10;;;;;;5032819;28;20465;-72
2024/02/17 10:50:02;;;;;;;16.43;10.03;;;12.60;75.20;;;;;;5032099;28;20786;-71
2024/02/17 10:52:33;;;;;;;16.97;8.50;;;12.50;74.30;;;;;;5020889;28;21017;-73
2024/02/17 10:55:06;;;;;;;14.33;8.40;;;12.90;74.50;;;;;;5026777;28;20420;-71
2024/02/17 10:57:59;;;;;;;13.43;8.60;;;13.50;73.20;;;;;;5026987;28;21013;-72
2024/02/17 11:00:24;;;;;;;14.27;8.80;;;14.10;71.40;;;;;;5030360;28;20460;-72
2024/02/17 11:02:54;;;;;;;12.80;8.23;;;14.50;69.20;;;;;;5024802;28;20945;-72
2024/02/17 11:05:21;;;;;;;15.77;8.67;;;14.90;68.20;;;;;;5031357;28;20189;-73
2024/02/17 11:07:47;;;;;;;18.03;8.63;;;15.00;66.30;;;;;;5033326;28;20501;-73
2024/02/17 11:10:14;;;;;;;15.67;7.50;;;15.10;65.80;;;;;;5031884;28;20466;-72
2024/02/17 11:12:46;;;;;;;13.70;7.70;;;15.20;66.10;;;;;;5021787;28;20926;-72
2024/02/17 11:15:12;;;;;;;13.37;7.87;;;15.20;66.10;;;;;;5032653;28;20440;-71
2024/02/17 11:17:50;;;;;;;20.70;8.00;;;15.20;65.80;;;;;;5032285;28;20856;-72
2024/02/17 11:20:16;;;;;;;12.10;7.47;;;14.80;65.80;;;;;;5028710;28;20193;-74
2024/02/17 11:22:55;;;;;;;16.70;7.67;;;14.30;65.70;;;;;;5025994;28;20459;-72
2024/02/17 11:25:31;;;;;;;15.50;8.40;;;14.10;66.60;;;;;;5032015;28;20429;-71
2024/02/17 11:27:58;;;;;;;18.00;8.53;;;13.60;68.30;;;;;;5031770;28;20909;-73
2024/02/17 11:30:24;;;;;;;17.33;9.90;;;13.00;72.10;;;;;;5030233;28;20468;-71
2024/02/17 11:33:00;;;;;;;16.17;8.17;;;12.70;72.90;;;;;;5025447;28;20477;-72
2024/02/17 11:35:30;;;;;;;15.97;8.20;;;12.40;74.90;;;;;;5031772;28;20905;-72
2024/02/17 11:37:56;;;;;;;13.77;9.10;;;12.50;74.20;;;;;;5029456;28;20446;-71
2024/02/17 11:40:23;;;;;;;13.83;8.10;;;12.50;73.50;;;;;;5029557;28;20577;-72
2024/02/17 11:42:54;;;;;;;14.17;7.70;;;12.60;73.70;;;;;;5028705;28;20475;-72
2024/02/17 11:45:19;;;;;;;13.37;8.07;;;13.20;73.00;;;;;;5028734;28;20419;-71
2024/02/17 11:47:45;;;;;;;15.53;7.80;;;13.50;70.50;;;;;;5032698;28;20463;-72
2024/02/17 11:50:11;;;;;;;13.10;7.40;;;13.40;69.40;;;;;;5029518;28;20173;-73
2024/02/17 11:52:41;;;;;;;15.07;6.33;;;13.40;70.50;;;;;;5027846;28;20267;-72
2024/02/17 11:55:08;;;;;;;10.57;6.23;;;13.70;69.40;;;;;;5030932;28;20427;-71
2024/02/17 11:57:36;;;;;;;9.87;6.00;;;13.70;68.60;;;;;;5032657;28;20773;-75
2024/02/17 12:00:08;;;;;;;10.13;5.50;;;13.70;67.60;;;;;;5032541;28;20420;-73
2024/02/17 12:02:35;;;;;;;15.47;7.97;;;13.60;67.70;;;;;;5025277;28;20440;-74
2024/02/17 12:05:02;;;;;;;12.40;7.40;;;13.60;68.60;;;;;;5032986;28;20510;-72
2024/02/17 12:07:30;;;;;;;14.70;8.17;;;13.40;69.70;;;;;;5031239;28;20409;-73
2024/02/17 12:09:56;;;;;;;18.67;8.70;;;13.20;70.40;;;;;;5027836;28;20421;-73
2024/02/17 12:12:21;;;;;;;15.50;8.20;;;13.30;71.60;;;;;;5025254;28;20471;-73
2024/02/17 12:14:50;;;;;;;13.40;7.93;;;13.50;71.30;;;;;;5019747;28;20261;-73
2024/02/17 12:17:16;;;;;;;13.77;6.90;;;13.60;70.50;;;;;;5032518;28;20203;-74
2024/02/17 12:19:42;;;;;;;11.63;6.40;;;13.60;70.70;;;;;;5032354;28;20794;-72
2024/02/17 12:22:08;;;;;;;7.53;3.80;;;13.90;68.00;;;;;;5027091;28;20224;-72
2024/02/17 12:24:34;;;;;;;8.53;4.87;;;13.60;64.50;;;;;;5024780;28;20475;-72
2024/02/17 12:27:00;;;;;;;11.20;6.70;;;13.70;65.70;;;;;;5032077;28;20194;-72
2024/02/17 12:29:28;;;;;;;13.80;6.33;;;13.90;67.60;;;;;;5032622;28;20482;-73
2024/02/17 12:31:56;;;;;;;8.27;4.77;;;14.20;66.60;;;;;;5022602;28;20857;-72
2024/02/17 12:34:29;;;;;;;12.43;4.10;;;14.40;65.00;;;;;;5026836;28;20486;-72